Sparta, IL

2:03 AM CDT on July 25, 2014 (GMT -0500)
Sparta Community-Hunter (KSAR) Elev 538 ft | 38.15 °N, 89.70 °W | Change Station

Current weather conditions updated 8 minutes ago

Clear
Clear
61 °F
Feels Like 61 °F
N
4
Wind Variable Wind from SSE

Today is forecast to be Warmer than yesterday.

Today
High -- | Low -- °F
--% Chance of Precip.
Yesterday
High -- | Low -- °F
Precip. -- in
5:55 AM 8:14 PM
Waning Crescent, 2% visible
Pressure 30.05 in
Visibility 10.0 miles
Clouds Clear
Dew Point 55 °F
Humidity 82%
Rainfall 0.00 in
Snow Depth Not available.
UV 0 out of 12
Pollen 5.80 out of 12
Air Quality Not available.
Flu Activity Not available.
METAR KSAR 250655Z AUTO 15003KT 10SM CLR 16/13 A3005 RMK AO2

More Conditions Fewer Conditions

Pressure 30.05 in
Visibility 10.0 miles
Clouds Clear
Dew Point 55 °F
Humidity 82%
Rainfall 0.00 in
Snow Depth Not available.
UV 0 out of 12
Pollen 5.80 out of 12
Air Quality Not available.
Flu Activity Not available.
METAR KSAR 250655Z AUTO 15003KT 10SM CLR 16/13 A3005 RMK AO2

More Conditions Fewer Conditions

10-Day Weather Forecast

Almanac

Astronomy

Jul. 25, 2014 Rise Set
Actual Time 5:55 AM CDT 8:14 PM CDT
Civil Twilight 5:25 AM CDT 8:44 PM CDT
Nautical Twilight 4:48 AM CDT 9:21 PM CDT
Astronomical Twilight 4:08 AM CDT 10:01 PM CDT
Moon 4:54 AM CDT 7:12 PM CDT
Length of Visible Light 15h 18m
Length of Day
14h 18m
Tomorrow will be 1m 39s shorter.
Waning Crescent, 2% of the Moon is Illuminated
Today
Waning Crescent
Jul 26
New
Aug 3
First Quarter
Aug 10
Full
Aug 17
Last Quarter

Today's Extremes

State Highs State Lows

Community

WunderPhotos

Upload Photos

1,737,266 photos uploaded!

Nearby

Snow Depth

Station Depth Elevation
No new snow has been reported.

Earthquake Activity

City Distance Mag. Time & Date
No recent earthquake activity has been reported nearby.
Minimum magnitude displayed is 2.5.

Coastal Water Temperatures

Place Temperature
No Stations Reporting

Nearby Weather Stations

Station Location Temp. Dew Point Humidity Wind Precip. Elev Updated Type
MesoWest STELVL , Steeleville, IL 67 °F - - North  at  - 0.00 in / hr 431 ft 11:10 PM CDT MADIS
MesoWest REILY1 , Ellis Grove, IL 64 °F - - North  at  - 0.00 in / hr 389 ft 12:45 AM CDT MADIS
Firehouse, Chester, IL 65.7 °F 59 °F 78% SE  at  1.0 mph 0.00 in / hr 650 ft 2:02 AM CDT Normal
Oxbow, Pinckneyville, IL 59.0 °F 59 °F 99% ESE  at  0.0 mph 0.00 in / hr 440 ft 2:03 AM CDT Rapid Fire
Gerry's Pool, Prairie Du Rocher, IL 59.5 °F 57 °F 90% East  at  0.0 mph 0.00 in / hr 410 ft 2:00 AM CDT Normal
MesoWest KIDD1 , Prairie Du Rocher, IL 59 °F - - North  at  - 0.00 in / hr 392 ft 1:10 AM CDT MADIS
MesoWest MUDVIL , Pinckneyville, IL 67 °F - - North  at  - 0.00 in / hr 472 ft 11:05 PM CDT MADIS

Show More Stations Show Fewer Stations